Wetterdaten: Woche 03.04.06 - 09.04.06 (KW14)
Datum Zeit Temperatur Luftfeuchte Luftdruck Niederschlag Wind Richtung Sonne Solar Taupunkt Windchill
03.04.2006 00:00 9.4 C 89 % 1017.5 hPa 2.0 l/m 23.0 km/h (4 Bft) NW 0.00 h 0 W/m 7.7 C 6.7 C
03.04.2006 01:00 8.5 C 97 % 1018.4 hPa 0.0 l/m 11.0 km/h (2 Bft) NW 0.00 h 0 W/m 8.0 C 6.7 C
03.04.2006 02:00 7.2 C 98 % 1018.6 hPa 0.0 l/m 0.8 km/h (0 Bft) W-NW 0.00 h 0 W/m 6.9 C 7.1 C
03.04.2006 03:00 7.1 C 99 % 1018.6 hPa 0.0 l/m 1.8 km/h (1 Bft) SO 0.00 h 0 W/m 6.9 C 6.9 C
03.04.2006 04:00 7.1 C 99 % 1018.6 hPa 0.0 l/m 0.9 km/h (0 Bft) SO 0.00 h 0 W/m 7.0 C 6.9 C
03.04.2006 05:00 7.0 C 100 % 1018.6 hPa 0.0 l/m 0.5 km/h (0 Bft) NW 0.00 h 0 W/m 6.9 C 6.9 C
03.04.2006 06:00 7.7 C 97 % 1019.4 hPa 0.0 l/m 18.1 km/h (3 Bft) NW 0.00 h 0 W/m 7.2 C 4.7 C
03.04.2006 07:00 8.0 C 79 % 1019.5 hPa 0.0 l/m 22.9 km/h (4 Bft) NW 0.20 h 40 W/m 4.5 C 4.6 C
03.04.2006 08:00 8.1 C 74 % 1019.7 hPa 0.0 l/m 32.0 km/h (5 Bft) NW 0.27 h 122 W/m 3.7 C 4.0 C
03.04.2006 09:00 9.1 C 64 % 1020.3 hPa 0.0 l/m 37.2 km/h (5 Bft) NW 0.88 h 393 W/m 2.7 C 5.0 C
03.04.2006 10:00 10.1 C 58 % 1020.3 hPa 0.0 l/m 32.7 km/h (5 Bft) NW 0.92 h 535 W/m 2.2 C 8.0 C
03.04.2006 11:00 10.0 C 58 % 1021.1 hPa 0.0 l/m 24.6 km/h (4 Bft) NW 0.25 h 348 W/m 2.0 C 8.8 C
03.04.2006 12:00 10.6 C 58 % 1021.2 hPa 0.0 l/m 28.5 km/h (4 Bft) NW 0.35 h 435 W/m 2.6 C 10.5 C
03.04.2006 13:00 11.9 C 50 % 1021.1 hPa 0.0 l/m 32.0 km/h (5 Bft) NW 0.87 h 744 W/m 1.8 C 11.9 C
03.04.2006 14:00 13.0 C 44 % 1020.0 hPa 0.0 l/m 27.7 km/h (4 Bft) NW 0.73 h 648 W/m 1.0 C 13.0 C
03.04.2006 15:00 12.4 C 49 % 1020.0 hPa 0.0 l/m 26.3 km/h (4 Bft) NW 0.63 h 493 W/m 1.8 C 12.4 C
03.04.2006 16:00 11.2 C 55 % 1020.1 hPa 0.0 l/m 28.4 km/h (4 Bft) NW 0.40 h 323 W/m 2.6 C 11.2 C
03.04.2006 17:00 11.7 C 51 % 1020.1 hPa 0.0 l/m 31.7 km/h (5 Bft) NW 0.73 h 355 W/m 1.9 C 11.7 C
03.04.2006 18:00 11.1 C 58 % 1020.1 hPa 0.0 l/m 12.6 km/h (3 Bft) NW 0.83 h 261 W/m 3.1 C 10.9 C
03.04.2006 19:00 10.4 C 64 % 1020.2 hPa 0.0 l/m 9.0 km/h (2 Bft) NW 0.23 h 44 W/m 3.8 C 9.9 C
03.04.2006 20:00 9.0 C 65 % 1020.5 hPa 0.0 l/m 9.6 km/h (2 Bft) NW 0.00 h 0 W/m 2.7 C 7.7 C
03.04.2006 21:00 7.4 C 72 % 1021.7 hPa 0.0 l/m 3.2 km/h (1 Bft) S-SO 0.00 h 0 W/m 2.8 C 7.0 C
03.04.2006 22:00 6.3 C 77 % 1021.8 hPa 0.0 l/m 5.8 km/h (2 Bft) S-SO 0.00 h 0 W/m 2.6 C 5.3 C
03.04.2006 23:00 6.0 C 80 % 1021.9 hPa 0.0 l/m 1.6 km/h (1 Bft) S-SO 0.00 h 0 W/m 2.8 C 5.8 C
04.04.2006 00:00 5.4 C 80 % 1022.0 hPa 0.0 l/m 0.3 km/h (0 Bft) O-NO 0.00 h 0 W/m 2.2 C 5.4 C
04.04.2006 01:00 3.6 C 89 % 1021.6 hPa 0.0 l/m 0.3 km/h (0 Bft) O-NO 0.00 h 0 W/m 1.8 C 3.6 C
04.04.2006 02:00 3.0 C 94 % 1021.3 hPa 0.0 l/m 0.6 km/h (0 Bft) O-NO 0.00 h 0 W/m 2.1 C 3.0 C
04.04.2006 03:00 2.3 C 96 % 1020.7 hPa 0.0 l/m 2.3 km/h (1 Bft) O-NO 0.00 h 0 W/m 1.8 C 2.1 C
04.04.2006 04:00 1.9 C 98 % 1020.4 hPa 0.0 l/m 0.1 km/h (0 Bft) N 0.00 h 0 W/m 1.6 C 1.9 C
04.04.2006 05:00 1.1 C 99 % 1020.5 hPa 0.0 l/m 0.0 km/h (0 Bft) N 0.00 h 0 W/m 1.0 C 1.1 C
04.04.2006 06:00 0.8 C 100 % 1020.5 hPa 0.0 l/m 0.0 km/h (0 Bft) N 0.00 h 0 W/m 0.8 C 0.8 C
04.04.2006 07:00 1.6 C 100 % 1019.5 hPa 0.0 l/m 0.0 km/h (0 Bft) N 0.00 h 25 W/m 1.6 C 1.6 C
04.04.2006 08:00 2.3 C 100 % 1019.3 hPa 0.0 l/m 0.1 km/h (0 Bft) O-NO 0.37 h 150 W/m 2.3 C 2.3 C
04.04.2006 09:00 3.8 C 99 % 1019.1 hPa 0.0 l/m 0.3 km/h (0 Bft) N 0.77 h 356 W/m 3.6 C 3.7 C
04.04.2006 10:00 7.2 C 77 % 1018.4 hPa 0.0 l/m 0.8 km/h (0 Bft) NW 1.00 h 541 W/m 3.4 C 7.1 C
04.04.2006 11:00 10.8 C 59 % 1017.1 hPa 0.0 l/m 2.2 km/h (1 Bft) SO 1.00 h 659 W/m 3.1 C 10.8 C
04.04.2006 12:00 12.7 C 46 % 1015.8 hPa 0.0 l/m 3.2 km/h (1 Bft) NW 0.83 h 686 W/m 1.5 C 12.7 C
04.04.2006 13:00 13.7 C 37 % 1014.7 hPa 0.0 l/m 10.1 km/h (2 Bft) NW 0.93 h 721 W/m -0.7 C 13.7 C
04.04.2006 14:00 14.7 C 33 % 1013.8 hPa 0.0 l/m 9.3 km/h (2 Bft) NW 1.00 h 638 W/m -1.3 C 14.7 C
04.04.2006 15:00 14.9 C 29 % 1012.6 hPa 0.0 l/m 9.1 km/h (2 Bft) NW 1.00 h 503 W/m -2.9 C 14.9 C
04.04.2006 16:00 15.2 C 28 % 1012.0 hPa 0.0 l/m 4.8 km/h (1 Bft) NW 0.90 h 408 W/m -3.4 C 15.2 C
04.04.2006 17:00 14.5 C 30 % 1011.4 hPa 0.0 l/m 5.3 km/h (1 Bft) NW 0.10 h 192 W/m -3.1 C 14.5 C
04.04.2006 18:00 14.0 C 33 % 1010.7 hPa 0.0 l/m 0.9 km/h (0 Bft) NW 0.20 h 122 W/m -1.9 C 14.0 C
04.04.2006 19:00 12.7 C 43 % 1010.6 hPa 0.0 l/m 0.0 km/h (0 Bft) NW 0.03 h 32 W/m 0.0 C 12.7 C
04.04.2006 20:00 10.9 C 50 % 1010.8 hPa 0.0 l/m 7.1 km/h (2 Bft) NO 0.00 h 0 W/m 1.0 C 10.9 C
04.04.2006 21:00 10.0 C 55 % 1010.9 hPa 0.0 l/m 6.6 km/h (2 Bft) O-NO 0.00 h 0 W/m 1.4 C 9.7 C
04.04.2006 22:00 9.3 C 56 % 1010.2 hPa 0.0 l/m 5.2 km/h (1 Bft) NO 0.00 h 0 W/m 0.9 C 8.7 C
04.04.2006 23:00 8.4 C 58 % 1010.1 hPa 0.0 l/m 0.8 km/h (0 Bft) NO 0.00 h 0 W/m 0.6 C 8.4 C
05.04.2006 00:00 7.6 C 62 % 1009.4 hPa 0.0 l/m 1.9 km/h (1 Bft) NO 0.00 h 0 W/m 0.8 C 7.5 C
05.04.2006 01:00 7.0 C 64 % 1009.3 hPa 0.0 l/m 1.7 km/h (1 Bft) NO 0.00 h 0 W/m 0.7 C 6.8 C
05.04.2006 02:00 6.8 C 65 % 1009.3 hPa 0.0 l/m 2.0 km/h (1 Bft) O 0.00 h 0 W/m 0.7 C 6.5 C
05.04.2006 03:00 6.6 C 67 % 1008.5 hPa 0.0 l/m 1.2 km/h (1 Bft) N-NO 0.00 h 0 W/m 0.9 C 6.4 C
05.04.2006 04:00 6.1 C 75 % 1008.1 hPa 0.6 l/m 0.1 km/h (0 Bft) O-NO 0.00 h 0 W/m 2.1 C 6.1 C
05.04.2006 05:00 5.2 C 91 % 1007.4 hPa 2.3 l/m 0.1 km/h (0 Bft) N 0.00 h 0 W/m 3.8 C 5.2 C
05.04.2006 06:00 4.9 C 96 % 1006.8 hPa 1.6 l/m 0.0 km/h (0 Bft) N 0.00 h 0 W/m 4.3 C 4.9 C
05.04.2006 07:00 4.0 C 97 % 1006.6 hPa 1.3 l/m 0.1 km/h (0 Bft) N 0.00 h 4 W/m 3.5 C 4.0 C
05.04.2006 08:00 3.5 C 97 % 1006.6 hPa 2.6 l/m 0.3 km/h (0 Bft) NO 0.00 h 19 W/m 3.0 C 3.5 C
05.04.2006 09:00 3.1 C 96 % 1005.7 hPa 2.6 l/m 1.3 km/h (1 Bft) SO 0.00 h 35 W/m 2.5 C 2.8 C
05.04.2006 10:00 2.7 C 97 % 1006.1 hPa 2.0 l/m 1.3 km/h (1 Bft) SO 0.00 h 47 W/m 2.2 C 2.5 C
05.04.2006 11:00 1.9 C 98 % 1006.9 hPa 2.6 l/m 0.6 km/h (0 Bft) SO 0.00 h 58 W/m 1.7 C 1.8 C
05.04.2006 12:00 1.7 C 100 % 1006.8 hPa 2.0 l/m 0.1 km/h (0 Bft) N 0.00 h 89 W/m 1.7 C 1.7 C
05.04.2006 13:00 2.1 C 99 % 1006.4 hPa 1.3 l/m 0.2 km/h (0 Bft) SO 0.00 h 81 W/m 1.9 C 2.1 C
05.04.2006 14:00 1.3 C 99 % 1007.3 hPa 3.3 l/m 0.0 km/h (0 Bft) N 0.00 h 61 W/m 1.2 C 1.3 C
05.04.2006 15:00 1.4 C 100 % 1008.0 hPa 2.0 l/m 0.1 km/h (0 Bft) N 0.00 h 99 W/m 1.4 C 1.4 C
05.04.2006 16:00 1.5 C 100 % 1008.5 hPa 1.0 l/m 0.0 km/h (0 Bft) SO 0.00 h 60 W/m 1.5 C 1.5 C
05.04.2006 17:00 2.3 C 100 % 1009.1 hPa 0.0 l/m 0.6 km/h (0 Bft) SO 0.00 h 62 W/m 2.2 C 2.3 C
05.04.2006 18:00 2.7 C 99 % 1010.3 hPa 0.6 l/m 0.0 km/h (0 Bft) N 0.00 h 32 W/m 2.5 C 2.7 C
05.04.2006 19:00 2.4 C 98 % 1011.3 hPa 0.6 l/m 0.1 km/h (0 Bft) N 0.00 h 12 W/m 2.2 C 2.4 C
05.04.2006 20:00 2.1 C 99 % 1012.3 hPa 0.0 l/m 0.0 km/h (0 Bft) N 0.00 h 0 W/m 1.9 C 2.1 C
05.04.2006 21:00 2.1 C 99 % 1013.4 hPa 0.3 l/m 0.7 km/h (0 Bft) NO 0.00 h 0 W/m 1.9 C 2.1 C
05.04.2006 22:00 1.6 C 96 % 1014.2 hPa 0.0 l/m 0.1 km/h (0 Bft) N 0.00 h 0 W/m 1.0 C 1.6 C
05.04.2006 23:00 1.4 C 97 % 1014.2 hPa 0.0 l/m 0.2 km/h (0 Bft) O-NO 0.00 h 0 W/m 1.0 C 1.4 C
06.04.2006 00:00 1.0 C 100 % 1015.1 hPa 0.0 l/m 3.5 km/h (1 Bft) SO 0.00 h 0 W/m 1.0 C 0.3 C
06.04.2006 01:00 1.0 C 100 % 1015.3 hPa 0.0 l/m 0.0 km/h (0 Bft) N 0.00 h 0 W/m 1.0 C 1.0 C
06.04.2006 02:00 0.8 C 100 % 1015.3 hPa 0.0 l/m 0.0 km/h (0 Bft) N 0.00 h 0 W/m 0.8 C 0.8 C
06.04.2006 03:00 0.5 C 100 % 1015.4 hPa 0.0 l/m 0.0 km/h (0 Bft) N 0.00 h 0 W/m 0.4 C 0.5 C
06.04.2006 04:00 -0.2 C 100 % 1015.5 hPa 0.0 l/m 0.0 km/h (0 Bft) N 0.00 h 0 W/m -0.2 C -0.2 C
06.04.2006 05:00 -1.1 C 100 % 1015.6 hPa 0.0 l/m 0.0 km/h (0 Bft) N 0.00 h 0 W/m -1.1 C -1.1 C
06.04.2006 06:00 -1.2 C 100 % 1015.6 hPa 0.0 l/m 0.0 km/h (0 Bft) N 0.00 h 0 W/m -1.2 C -1.2 C
06.04.2006 07:00 -0.8 C 100 % 1015.9 hPa 0.0 l/m 0.0 km/h (0 Bft) N 0.00 h 34 W/m -0.8 C -0.8 C
06.04.2006 08:00 0.0 C 100 % 1016.5 hPa 0.0 l/m 0.1 km/h (0 Bft) N 1.00 h 244 W/m 0.0 C 0.0 C
06.04.2006 09:00 2.3 C 88 % 1016.2 hPa 0.0 l/m 1.1 km/h (1 Bft) O-NO 1.00 h 445 W/m 0.4 C 2.0 C
06.04.2006 10:00 4.6 C 71 % 1015.8 hPa 0.0 l/m 3.1 km/h (1 Bft) NO 1.00 h 607 W/m -0.2 C 4.1 C
06.04.2006 11:00 6.2 C 65 % 1015.6 hPa 0.0 l/m 10.1 km/h (2 Bft) O-SO 0.97 h 700 W/m 0.0 C 4.3 C
06.04.2006 12:00 7.6 C 56 % 1015.4 hPa 0.0 l/m 15.5 km/h (3 Bft) SO 0.80 h 715 W/m -0.7 C 5.5 C
06.04.2006 13:00 8.7 C 48 % 1015.3 hPa 0.0 l/m 24.0 km/h (4 Bft) SO 0.67 h 648 W/m -1.7 C 5.8 C
06.04.2006 14:00 8.5 C 48 % 1015.3 hPa 0.0 l/m 17.1 km/h (3 Bft) SO 0.27 h 457 W/m -2.0 C 6.0 C
06.04.2006 15:00 8.6 C 42 % 1014.8 hPa 0.0 l/m 5.0 km/h (1 Bft) NO 0.23 h 394 W/m -3.5 C 8.1 C
06.04.2006 16:00 9.1 C 42 % 1014.3 hPa 0.0 l/m 10.8 km/h (2 Bft) SO 0.67 h 456 W/m -3.2 C 7.8 C
06.04.2006 17:00 9.1 C 38 % 1014.3 hPa 0.0 l/m 9.3 km/h (2 Bft) SO 0.83 h 378 W/m -4.3 C 7.9 C
06.04.2006 18:00 7.9 C 40 % 1014.3 hPa 0.0 l/m 4.2 km/h (1 Bft) SO 0.83 h 228 W/m -5.0 C 7.2 C
06.04.2006 19:00 6.7 C 43 % 1014.5 hPa 0.0 l/m 1.6 km/h (1 Bft) O 0.90 h 72 W/m -5.0 C 6.5 C
06.04.2006 20:00 4.6 C 50 % 1015.8 hPa 0.0 l/m 0.6 km/h (0 Bft) NO 0.00 h 0 W/m -4.9 C 4.6 C
06.04.2006 21:00 3.1 C 59 % 1016.1 hPa 0.0 l/m 0.1 km/h (0 Bft) N 0.00 h 0 W/m -4.3 C 3.1 C
06.04.2006 22:00 1.5 C 72 % 1016.3 hPa 0.0 l/m 0.0 km/h (0 Bft) N 0.00 h 0 W/m -3.0 C 1.5 C
06.04.2006 23:00 0.0 C 81 % 1016.5 hPa 0.0 l/m 0.1 km/h (0 Bft) N-NW 0.00 h 0 W/m -2.9 C 0.0 C
07.04.2006 00:00 -0.9 C 85 % 1016.6 hPa 0.0 l/m 0.0 km/h (0 Bft) N 0.00 h 0 W/m -3.1 C -0.9 C
07.04.2006 01:00 -1.6 C 88 % 1016.7 hPa 0.0 l/m 0.0 km/h (0 Bft) N 0.00 h 0 W/m -3.4 C -1.6 C
07.04.2006 02:00 -1.7 C 91 % 1016.8 hPa 0.0 l/m 0.2 km/h (0 Bft) N 0.00 h 0 W/m -3.0 C -1.7 C
07.04.2006 03:00 -2.0 C 91 % 1016.8 hPa 0.0 l/m 0.3 km/h (0 Bft) N 0.00 h 0 W/m -3.2 C -2.0 C
07.04.2006 04:00 -2.8 C 93 % 1016.9 hPa 0.0 l/m 0.0 km/h (0 Bft) N 0.00 h 0 W/m -3.8 C -2.8 C
07.04.2006 05:00 -3.0 C 94 % 1017.7 hPa 0.0 l/m 0.0 km/h (0 Bft) N 0.00 h 0 W/m -3.8 C -3.0 C
07.04.2006 06:00 -3.4 C 95 % 1018.1 hPa 0.0 l/m 0.0 km/h (0 Bft) N 0.00 h 0 W/m -4.0 C -3.4 C
07.04.2006 07:00 -2.7 C 95 % 1018.0 hPa 0.0 l/m 0.0 km/h (0 Bft) N 0.38 h 59 W/m -3.4 C -2.7 C
07.04.2006 08:00 -1.2 C 92 % 1018.7 hPa 0.0 l/m 0.0 km/h (0 Bft) N 1.00 h 231 W/m -2.4 C -1.2 C
07.04.2006 09:00 1.4 C 78 % 1018.4 hPa 0.0 l/m 0.0 km/h (0 Bft) N 1.00 h 399 W/m -2.1 C 1.4 C
07.04.2006 10:00 3.9 C 63 % 1018.0 hPa 0.0 l/m 0.6 km/h (0 Bft) N-NW 1.00 h 539 W/m -2.5 C 3.9 C
07.04.2006 11:00 6.9 C 55 % 1017.6 hPa 0.0 l/m 4.2 km/h (1 Bft) SO 1.00 h 653 W/m -1.5 C 6.2 C
07.04.2006 12:00 8.9 C 49 % 1016.7 hPa 0.0 l/m 3.4 km/h (1 Bft) SO 1.00 h 720 W/m -1.1 C 8.6 C
07.04.2006 13:00 10.2 C 46 % 1016.1 hPa 0.0 l/m 6.3 km/h (2 Bft) SO 1.02 h 747 W/m -0.9 C 9.9 C
07.04.2006 14:00 11.3 C 40 % 1015.5 hPa 0.0 l/m 4.2 km/h (1 Bft) SO 0.98 h 723 W/m -1.7 C 11.2 C
07.04.2006 15:00 12.5 C 33 % 1014.7 hPa 0.0 l/m 5.9 km/h (2 Bft) SO 0.98 h 658 W/m -3.2 C 12.5 C
07.04.2006 16:00 12.7 C 31 % 1014.2 hPa 0.0 l/m 0.1 km/h (0 Bft) N 1.03 h 545 W/m -3.9 C 12.7 C
07.04.2006 17:00 12.6 C 33 % 1013.7 hPa 0.0 l/m 1.5 km/h (1 Bft) N 1.00 h 384 W/m -3.1 C 12.6 C
07.04.2006 18:00 12.1 C 37 % 1013.8 hPa 0.0 l/m 0.9 km/h (0 Bft) NW 1.00 h 239 W/m -2.3 C 12.1 C
07.04.2006 19:00 10.5 C 42 % 1014.0 hPa 0.0 l/m 0.0 km/h (0 Bft) N 0.90 h 70 W/m -2.1 C 10.5 C
07.04.2006 20:00 7.7 C 58 % 1014.4 hPa 0.0 l/m 3.0 km/h (1 Bft) SO 0.00 h 0 W/m -0.2 C 7.1 C
07.04.2006 21:00 5.8 C 70 % 1015.7 hPa 0.0 l/m 5.6 km/h (1 Bft) SO 0.00 h 0 W/m 0.7 C 4.7 C
07.04.2006 22:00 3.8 C 81 % 1016.0 hPa 0.0 l/m 0.0 km/h (0 Bft) N 0.00 h 0 W/m 0.8 C 3.8 C
07.04.2006 23:00 2.4 C 88 % 1016.2 hPa 0.0 l/m 0.1 km/h (0 Bft) N 0.00 h 0 W/m 0.6 C 2.4 C
08.04.2006 00:00 1.6 C 92 % 1016.3 hPa 0.0 l/m 0.2 km/h (0 Bft) O 0.00 h 0 W/m 0.5 C 1.6 C
08.04.2006 01:00 0.6 C 95 % 1016.4 hPa 0.0 l/m 0.0 km/h (0 Bft) N 0.00 h 0 W/m -0.1 C 0.6 C
08.04.2006 02:00 0.3 C 96 % 1016.2 hPa 0.0 l/m 0.0 km/h (0 Bft) N 0.00 h 0 W/m -0.3 C 0.3 C
08.04.2006 03:00 -0.3 C 97 % 1015.6 hPa 0.0 l/m 0.1 km/h (0 Bft) O 0.00 h 0 W/m -0.7 C -0.3 C
08.04.2006 04:00 -1.0 C 98 % 1016.4 hPa 0.0 l/m 0.7 km/h (0 Bft) O-SO 0.00 h 0 W/m -1.3 C -1.0 C
08.04.2006 05:00 -1.4 C 98 % 1016.6 hPa 0.0 l/m 0.1 km/h (0 Bft) SO 0.00 h 0 W/m -1.6 C -1.4 C
08.04.2006 06:00 -1.5 C 99 % 1016.7 hPa 0.0 l/m 0.1 km/h (0 Bft) SO 0.00 h 6 W/m -1.7 C -1.5 C
08.04.2006 07:00 -1.4 C 99 % 1016.7 hPa 0.0 l/m 0.0 km/h (0 Bft) N 0.20 h 52 W/m -1.5 C -1.4 C
08.04.2006 08:00 0.3 C 99 % 1016.5 hPa 0.0 l/m 0.0 km/h (0 Bft) N 1.00 h 217 W/m 0.1 C 0.3 C
08.04.2006 09:00 2.9 C 83 % 1016.1 hPa 0.0 l/m 0.0 km/h (0 Bft) N 1.00 h 384 W/m 0.3 C 2.9 C
08.04.2006 10:00 6.2 C 69 % 1015.3 hPa 0.0 l/m 0.0 km/h (0 Bft) N 1.00 h 515 W/m 0.9 C 6.2 C
08.04.2006 11:00 10.3 C 58 % 1014.1 hPa 0.0 l/m 4.3 km/h (1 Bft) SO 1.00 h 640 W/m 2.4 C 10.2 C
08.04.2006 12:00 13.5 C 45 % 1013.3 hPa 0.0 l/m 7.4 km/h (2 Bft) SO 1.00 h 703 W/m 1.8 C 13.5 C
08.04.2006 13:00 15.0 C 39 % 1012.3 hPa 0.0 l/m 5.8 km/h (2 Bft) SO 1.00 h 734 W/m 1.3 C 15.0 C
08.04.2006 14:00 16.5 C 36 % 1011.1 hPa 0.0 l/m 8.1 km/h (2 Bft) NW 0.97 h 705 W/m 1.2 C 16.5 C
08.04.2006 15:00 17.1 C 34 % 1010.3 hPa 0.0 l/m 10.5 km/h (2 Bft) N-NW 1.00 h 635 W/m 1.0 C 17.1 C
08.04.2006 16:00 17.7 C 32 % 1009.9 hPa 0.0 l/m 17.0 km/h (3 Bft) NW 1.00 h 531 W/m 0.8 C 17.7 C
08.04.2006 17:00 17.9 C 33 % 1009.9 hPa 0.0 l/m 18.2 km/h (3 Bft) NW 1.00 h 397 W/m 1.5 C 17.9 C
08.04.2006 18:00 16.9 C 34 % 1010.0 hPa 0.0 l/m 21.4 km/h (4 Bft) N-NW 0.73 h 201 W/m 0.9 C 16.9 C
08.04.2006 19:00 15.2 C 32 % 1010.2 hPa 0.0 l/m 22.4 km/h (4 Bft) NW 0.33 h 47 W/m -1.3 C 15.2 C
08.04.2006 20:00 13.6 C 33 % 1010.6 hPa 0.0 l/m 19.6 km/h (3 Bft) NW 0.00 h 6 W/m -2.4 C 13.6 C
08.04.2006 21:00 12.2 C 38 % 1011.7 hPa 0.0 l/m 9.4 km/h (2 Bft) NW 0.00 h 0 W/m -1.7 C 12.2 C
08.04.2006 22:00 9.8 C 49 % 1012.0 hPa 0.0 l/m 8.4 km/h (2 Bft) SO 0.00 h 0 W/m -0.4 C 9.1 C
08.04.2006 23:00 9.1 C 55 % 1012.5 hPa 0.0 l/m 2.9 km/h (1 Bft) SO 0.00 h 0 W/m 0.6 C 8.7 C
09.04.2006 00:00 8.7 C 65 % 1013.2 hPa 0.3 l/m 3.9 km/h (1 Bft) SO 0.00 h 0 W/m 2.5 C 8.2 C
09.04.2006 01:00 7.5 C 85 % 1012.9 hPa 0.6 l/m 4.9 km/h (1 Bft) SO 0.00 h 0 W/m 5.1 C 6.8 C
09.04.2006 02:00 7.5 C 94 % 1012.4 hPa 0.0 l/m 2.4 km/h (1 Bft) SO 0.00 h 0 W/m 6.5 C 7.0 C
09.04.2006 03:00 7.4 C 98 % 1012.3 hPa 0.0 l/m 0.3 km/h (0 Bft) N 0.00 h 0 W/m 7.0 C 7.3 C
09.04.2006 04:00 7.3 C 99 % 1012.3 hPa 0.3 l/m 2.4 km/h (1 Bft) SO 0.00 h 0 W/m 7.1 C 7.0 C
09.04.2006 05:00 7.3 C 100 % 1012.8 hPa 0.0 l/m 3.7 km/h (1 Bft) SO 0.00 h 0 W/m 7.3 C 6.7 C
09.04.2006 06:00 7.3 C 100 % 1013.4 hPa 0.6 l/m 0.0 km/h (0 Bft) N 0.00 h 1 W/m 7.3 C 7.3 C
09.04.2006 07:00 7.2 C 100 % 1013.4 hPa 1.3 l/m 1.7 km/h (1 Bft) SO 0.00 h 11 W/m 7.2 C 7.0 C
09.04.2006 08:00 7.4 C 100 % 1013.7 hPa 0.6 l/m 0.5 km/h (0 Bft) SO 0.00 h 44 W/m 7.3 C 7.3 C
09.04.2006 09:00 7.5 C 98 % 1014.4 hPa 1.3 l/m 0.1 km/h (0 Bft) S 0.00 h 48 W/m 7.3 C 7.5 C
09.04.2006 10:00 7.6 C 98 % 1014.4 hPa 1.3 l/m 0.1 km/h (0 Bft) N 0.00 h 103 W/m 7.4 C 7.6 C
09.04.2006 11:00 8.0 C 92 % 1014.3 hPa 0.0 l/m 0.0 km/h (0 Bft) W 0.00 h 117 W/m 6.8 C 8.0 C
09.04.2006 12:00 7.9 C 92 % 1014.3 hPa 0.3 l/m 0.0 km/h (0 Bft) N 0.00 h 106 W/m 6.7 C 7.9 C
09.04.2006 13:00 7.9 C 96 % 1014.3 hPa 1.6 l/m 0.3 km/h (0 Bft) W-NW 0.00 h 114 W/m 7.4 C 7.9 C
09.04.2006 14:00 6.8 C 94 % 1014.5 hPa 2.9 l/m 2.3 km/h (1 Bft) N-NW 0.00 h 54 W/m 6.0 C 6.6 C
09.04.2006 15:00 6.3 C 91 % 1014.5 hPa 1.3 l/m 0.2 km/h (0 Bft) N 0.00 h 126 W/m 4.9 C 6.3 C
09.04.2006 16:00 6.3 C 93 % 1013.5 hPa 1.0 l/m 0.0 km/h (0 Bft) N 0.00 h 88 W/m 5.2 C 6.3 C
09.04.2006 17:00 6.0 C 95 % 1013.6 hPa 1.3 l/m 0.0 km/h (0 Bft) N 0.00 h 48 W/m 5.2 C 6.0 C
09.04.2006 18:00 5.7 C 98 % 1013.6 hPa 3.3 l/m 0.0 km/h (0 Bft) N 0.00 h 16 W/m 5.5 C 5.7 C
09.04.2006 19:00 5.5 C 99 % 1012.9 hPa 2.9 l/m 0.0 km/h (0 Bft) N 0.00 h 4 W/m 5.3 C 5.5 C
09.04.2006 20:00 4.7 C 99 % 1012.7 hPa 2.9 l/m 0.4 km/h (0 Bft) SO 0.00 h 1 W/m 4.5 C 4.6 C
09.04.2006 21:00 3.8 C 99 % 1013.8 hPa 2.9 l/m 0.9 km/h (0 Bft) O-SO 0.00 h 0 W/m 3.6 C 3.6 C
09.04.2006 22:00 3.2 C 100 % 1013.0 hPa 1.6 l/m 1.6 km/h (1 Bft) SO 0.00 h 0 W/m 3.1 C 2.8 C
09.04.2006 23:00 2.9 C 99 % 1012.1 hPa 1.0 l/m 0.4 km/h (0 Bft) N 0.00 h 0 W/m 2.8 C 2.8 C
Min-Datum _ 07.04.06 04.04.06 05.04.06 - 03.04.06 - - - 04.04.06 07.04.06
_ Min-Zeit 06:25 15:55 08:59 - 02:13 - - - 17:21 06:25
Minimum _ -3.8 C 20 % 1005.6 hPa - 0.0 km/h (0 Bft) - - - -8.2 C -3.8 C
Max-Datum _ 08.04.06 03.04.06 04.04.06 05.04.06 03.04.06 - 03.04.06 03.04.06 03.04.06 08.04.06
_ Max-Zeit 16:31 03:19 01:13 14:01 13:33 - 10:03 14:23 01:21 16:31
Maximum _ 18.2 C 100 % 1022.2 hPa 3.3 l/m 55.6 km/h
NW (7 Bft)
- 0.05 h 933 W/m 8.5 C 18.2 C
Durchschnitt _ 6.2 C 76 % 1014.8 hPa #58.2 l/m 4.9 km/h (1 Bft) NW #48:08 h 299 W/m 1.2 C 5.9 C
© Kaiko 2006